DYR weather

Dyersburg Regional Airport
Dyersburg, Tennessee, United States

Public forecast

Using degrees Fahrenheit for public forecast. Weather courtesy of forecast.io.

Current aviation weather report (METAR) for Dyersburg Regional Airport

Retrieved 2020/05/30 04:56 UTC (34 minutes ago):

KDYR 300456Z AUTO 00000KT 10SM FEW080 19/17 A3011 RMK AO2 SLP199 T01940172 PNO

Closest aviation forecast (TAF) to Dyersburg Regional Airport

Closest forecast is McKellar-Sipes Regional Airport, 33.8 nm (62.6 km) SE. Retrieved 2020-05-30 00:30 UTC (5 hours ago):

TAF KMKL 292328Z 3000/3024 36012KT P6SM FEW045 FM300200 VRB03KT P6SM SKC FM301500 36009KT P6SM SKC